Time;durP1;ratioP1;P1;durP2;ratioP2;P2;SDS_P1;SDS_P2;PMS_P1;PMS_P2;Temp;Humidity;BMP_temperature;BMP_pressure;BME280_temperature;BME280_humidity;BME280_pressure;Samples;Min_cycle;Max_cycle;Signal;HPM_P1;HPM_P2
2022/10/30 00:01:13;;;;;;;16.95;3.97;;;;;;;;;;4990234;28;20034;-83
2022/10/30 00:03:58;;;;;;;11.75;4.28;;;;;;;;;;4989279;28;20393;-77
2022/10/30 00:06:43;;;;;;;16.85;5.45;;;;;;;;;;4988674;28;20101;-77
2022/10/30 00:09:28;;;;;;;11.18;4.25;;;;;;;;;;4975564;28;20030;-77
2022/10/30 00:12:14;;;;;;;15.02;5.03;;;;;;;;;;5002272;28;20077;-77
2022/10/30 00:14:59;;;;;;;14.52;4.80;;;;;;;;;;4984660;28;20045;-76
2022/10/30 00:17:44;;;;;;;15.18;4.10;;;;;;;;;;4976281;28;20022;-77
2022/10/30 00:20:29;;;;;;;11.70;3.85;;;;;;;;;;5002987;28;20067;-74
2022/10/30 00:23:15;;;;;;;16.83;3.88;;;;;;;;;;4989471;28;20315;-74
2022/10/30 00:26:06;;;;;;;11.75;5.07;;;;;;;;;;4966043;28;20033;-75
2022/10/30 00:28:52;;;;;;;12.52;4.35;;;;;;;;;;5002644;28;20658;-74
2022/10/30 00:31:38;;;;;;;15.40;4.72;;;;;;;;;;4975971;28;20038;-76
2022/10/30 00:34:23;;;;;;;14.95;4.75;;;;;;;;;;4988908;28;20076;-76
2022/10/30 00:37:08;;;;;;;17.27;3.67;;;;;;;;;;4985139;28;20128;-78
2022/10/30 00:39:53;;;;;;;15.88;4.40;;;;;;;;;;4988747;28;20081;-78
2022/10/30 00:42:38;;;;;;;12.95;4.47;;;;;;;;;;4989195;28;20022;-77
2022/10/30 00:45:25;;;;;;;11.98;4.13;;;;;;;;;;4988903;28;20022;-77
2022/10/30 00:48:10;;;;;;;17.02;4.55;;;;;;;;;;5002649;28;20042;-77
2022/10/30 00:50:57;;;;;;;19.58;3.92;;;;;;;;;;4988740;28;20037;-78
2022/10/30 00:53:42;;;;;;;13.25;3.88;;;;;;;;;;4969615;28;20389;-75
2022/10/30 00:56:28;;;;;;;10.23;3.40;;;;;;;;;;4985621;28;20527;-77
2022/10/30 00:59:15;;;;;;;15.10;3.75;;;;;;;;;;4989194;28;20022;-76
2022/10/30 01:02:02;;;;;;;12.90;3.88;;;;;;;;;;4975389;28;20038;-76
2022/10/30 01:04:49;;;;;;;15.32;4.25;;;;;;;;;;4970615;28;20026;-76
2022/10/30 01:07:34;;;;;;;9.63;3.30;;;;;;;;;;4975631;28;20022;-76
2022/10/30 01:10:20;;;;;;;14.50;4.13;;;;;;;;;;5000772;28;20026;-76
2022/10/30 01:13:05;;;;;;;13.60;5.07;;;;;;;;;;4988934;28;20526;-81
2022/10/30 01:16:03;;;;;;;13.57;4.03;;;;;;;;;;4989161;28;20042;-79
2022/10/30 01:18:55;;;;;;;13.23;3.33;;;;;;;;;;4989497;28;20069;-79
2022/10/30 01:21:53;;;;;;;13.27;5.20;;;;;;;;;;4988921;28;20038;-79
2022/10/30 01:24:41;;;;;;;11.23;3.53;;;;;;;;;;4989177;28;20030;-79
2022/10/30 01:27:35;;;;;;;11.88;3.95;;;;;;;;;;4989453;28;20079;-78
2022/10/30 01:30:23;;;;;;;12.23;3.97;;;;;;;;;;4981094;28;20110;-73
2022/10/30 01:33:27;;;;;;;12.82;3.88;;;;;;;;;;5002872;28;20053;-77
2022/10/30 01:36:21;;;;;;;11.32;3.60;;;;;;;;;;4976138;28;20038;-77
2022/10/30 01:39:10;;;;;;;13.90;4.10;;;;;;;;;;5004358;28;20036;-77
2022/10/30 01:41:55;;;;;;;17.02;4.13;;;;;;;;;;5000290;28;20629;-76
2022/10/30 01:44:40;;;;;;;12.02;4.50;;;;;;;;;;4979842;28;20046;-76
2022/10/30 01:47:37;;;;;;;11.02;4.18;;;;;;;;;;4978463;28;20042;-77
2022/10/30 01:50:35;;;;;;;12.40;4.05;;;;;;;;;;4991956;28;20022;-77
2022/10/30 01:53:37;;;;;;;12.07;3.75;;;;;;;;;;5006323;28;20015;-77
2022/10/30 01:56:22;;;;;;;12.15;3.47;;;;;;;;;;4981134;28;20093;-77
2022/10/30 01:59:20;;;;;;;9.45;3.83;;;;;;;;;;5006965;28;20019;-77
2022/10/30 02:02:05;;;;;;;11.35;4.13;;;;;;;;;;4992305;28;20044;-79
2022/10/30 02:04:51;;;;;;;10.73;4.68;;;;;;;;;;4988354;28;20031;-78
2022/10/30 02:07:36;;;;;;;10.60;3.90;;;;;;;;;;4991533;28;20034;-76
2022/10/30 02:10:21;;;;;;;10.80;3.60;;;;;;;;;;4991841;28;20077;-78
2022/10/30 02:13:07;;;;;;;14.73;4.65;;;;;;;;;;4987280;28;20417;-78
2022/10/30 02:15:52;;;;;;;16.65;3.60;;;;;;;;;;4991039;28;20038;-77
2022/10/30 02:18:39;;;;;;;17.65;4.85;;;;;;;;;;4992284;28;20026;-77
2022/10/30 02:21:24;;;;;;;14.43;4.15;;;;;;;;;;4991987;28;20026;-77
2022/10/30 02:24:09;;;;;;;10.52;4.72;;;;;;;;;;5005611;28;20100;-77
2022/10/30 02:26:54;;;;;;;13.75;5.20;;;;;;;;;;4985999;28;20058;-78
2022/10/30 02:29:39;;;;;;;16.02;4.75;;;;;;;;;;4978892;28;20118;-76
2022/10/30 02:32:36;;;;;;;12.35;3.33;;;;;;;;;;4989877;28;20018;-77
2022/10/30 02:35:21;;;;;;;15.73;3.83;;;;;;;;;;4977255;28;20045;-77
2022/10/30 02:38:07;;;;;;;13.25;3.63;;;;;;;;;;4977346;28;20473;-75
2022/10/30 02:40:52;;;;;;;11.32;4.22;;;;;;;;;;4990857;28;20057;-76
2022/10/30 02:43:37;;;;;;;14.57;4.70;;;;;;;;;;4991145;28;20026;-75
2022/10/30 02:46:22;;;;;;;7.68;3.55;;;;;;;;;;4977841;28;20038;-76
2022/10/30 02:49:07;;;;;;;11.90;3.63;;;;;;;;;;4989938;28;20389;-78
2022/10/30 02:51:53;;;;;;;9.70;3.67;;;;;;;;;;4991326;28;20030;-77
2022/10/30 02:54:38;;;;;;;16.67;4.40;;;;;;;;;;4990527;28;20026;-76
2022/10/30 02:57:23;;;;;;;16.25;4.35;;;;;;;;;;4989470;28;20030;-76
2022/10/30 03:00:09;;;;;;;14.63;3.47;;;;;;;;;;4991264;28;20038;-77
2022/10/30 03:02:55;;;;;;;16.05;3.83;;;;;;;;;;5003995;28;20030;-78
2022/10/30 03:05:40;;;;;;;19.50;3.95;;;;;;;;;;4989578;28;20057;-76
2022/10/30 03:08:25;;;;;;;10.13;3.47;;;;;;;;;;5003114;28;20577;-77
2022/10/30 03:11:13;;;;;;;14.55;3.88;;;;;;;;;;4977195;28;20031;-76
2022/10/30 03:13:58;;;;;;;9.90;3.78;;;;;;;;;;4980470;28;20093;-77
2022/10/30 03:16:44;;;;;;;9.02;3.33;;;;;;;;;;5004237;28;20037;-76
2022/10/30 03:19:29;;;;;;;12.90;3.78;;;;;;;;;;4990071;28;20018;-76
2022/10/30 03:22:14;;;;;;;11.00;3.75;;;;;;;;;;4976564;28;20112;-78
2022/10/30 03:24:59;;;;;;;18.50;3.53;;;;;;;;;;4989382;28;20073;-77
2022/10/30 03:27:44;;;;;;;13.30;4.20;;;;;;;;;;4990745;28;20030;-77
2022/10/30 03:30:30;;;;;;;12.90;3.88;;;;;;;;;;4980461;28;20105;-76
2022/10/30 03:33:15;;;;;;;12.98;4.25;;;;;;;;;;4977179;28;20124;-78
2022/10/30 03:36:00;;;;;;;12.10;4.82;;;;;;;;;;4976179;28;20125;-76
2022/10/30 03:38:45;;;;;;;15.75;4.13;;;;;;;;;;4990168;28;20401;-77
2022/10/30 03:41:32;;;;;;;13.75;4.65;;;;;;;;;;4990673;28;20026;-74
2022/10/30 03:44:17;;;;;;;14.73;3.85;;;;;;;;;;4989924;28;20037;-75
2022/10/30 03:47:02;;;;;;;15.75;3.92;;;;;;;;;;5004132;28;20445;-75
2022/10/30 03:49:47;;;;;;;13.52;3.78;;;;;;;;;;4989832;28;20398;-74
2022/10/30 03:52:33;;;;;;;10.07;3.65;;;;;;;;;;5004000;28;20097;-76
2022/10/30 03:55:18;;;;;;;9.75;3.97;;;;;;;;;;4975839;28;20537;-76
2022/10/30 03:58:04;;;;;;;14.40;4.40;;;;;;;;;;4976663;28;20022;-83
2022/10/30 04:00:49;;;;;;;16.90;3.97;;;;;;;;;;4989417;28;20163;-78
2022/10/30 04:03:34;;;;;;;8.77;3.70;;;;;;;;;;5003845;28;20011;-79
2022/10/30 04:06:19;;;;;;;15.30;5.03;;;;;;;;;;4987716;28;20022;-76
2022/10/30 04:09:05;;;;;;;14.15;5.47;;;;;;;;;;4976249;28;20041;-78
2022/10/30 04:11:50;;;;;;;13.55;5.40;;;;;;;;;;4989207;28;20026;-79
2022/10/30 04:14:35;;;;;;;14.88;4.28;;;;;;;;;;4989515;28;20120;-78
2022/10/30 04:17:20;;;;;;;11.55;4.03;;;;;;;;;;4988820;28;20062;-75
2022/10/30 04:20:06;;;;;;;11.23;4.53;;;;;;;;;;4988407;28;20633;-75
2022/10/30 04:22:58;;;;;;;14.15;4.22;;;;;;;;;;4972702;28;20050;-75
2022/10/30 04:25:44;;;;;;;11.55;4.68;;;;;;;;;;4973307;28;20266;-75
2022/10/30 04:28:29;;;;;;;19.95;6.45;;;;;;;;;;4968555;28;20033;-76
2022/10/30 04:31:14;;;;;;;10.05;4.30;;;;;;;;;;4983032;28;20182;-76
2022/10/30 04:33:59;;;;;;;13.40;3.72;;;;;;;;;;4986496;28;20065;-75
2022/10/30 04:36:44;;;;;;;12.80;4.30;;;;;;;;;;4971299;28;20107;-76
2022/10/30 04:39:30;;;;;;;14.20;4.82;;;;;;;;;;5002521;28;20658;-75
2022/10/30 04:42:15;;;;;;;12.18;5.47;;;;;;;;;;5002176;28;20033;-76
2022/10/30 04:45:01;;;;;;;21.88;5.07;;;;;;;;;;4988811;28;20358;-76
2022/10/30 04:47:46;;;;;;;14.98;4.53;;;;;;;;;;4988343;28;20132;-75
2022/10/30 04:50:32;;;;;;;12.95;4.45;;;;;;;;;;4988601;28;20022;-78
2022/10/30 04:53:17;;;;;;;9.85;4.53;;;;;;;;;;4987376;28;20030;-74
2022/10/30 04:56:03;;;;;;;10.98;4.25;;;;;;;;;;4986972;28;20042;-84
2022/10/30 04:58:49;;;;;;;11.88;4.40;;;;;;;;;;4989790;28;20035;-82
2022/10/30 05:01:34;;;;;;;18.80;4.63;;;;;;;;;;4979162;28;20029;-84
2022/10/30 05:04:19;;;;;;;12.50;5.00;;;;;;;;;;4989291;28;20038;-85
2022/10/30 05:07:05;;;;;;;11.52;4.93;;;;;;;;;;5003333;28;20018;-86
2022/10/30 05:09:51;;;;;;;10.63;3.55;;;;;;;;;;4985380;28;20045;-84
2022/10/30 05:12:36;;;;;;;11.95;4.18;;;;;;;;;;5001019;28;20029;-74
2022/10/30 05:15:21;;;;;;;12.32;4.80;;;;;;;;;;4978570;28;20026;-75
2022/10/30 05:18:06;;;;;;;13.55;5.20;;;;;;;;;;4992256;28;20106;-76
2022/10/30 05:20:52;;;;;;;9.48;3.97;;;;;;;;;;4993169;28;20026;-77
2022/10/30 05:23:37;;;;;;;16.67;5.47;;;;;;;;;;4991995;28;20038;-77
2022/10/30 05:26:22;;;;;;;12.48;4.90;;;;;;;;;;5006314;28;20160;-76
2022/10/30 05:29:07;;;;;;;14.75;4.65;;;;;;;;;;4992271;28;20034;-75
2022/10/30 05:31:53;;;;;;;16.98;4.97;;;;;;;;;;4992673;28;20060;-77
2022/10/30 05:34:38;;;;;;;14.75;6.07;;;;;;;;;;4990628;28;20599;-76
2022/10/30 05:37:23;;;;;;;11.95;4.13;;;;;;;;;;5003897;28;20026;-77
2022/10/30 05:40:09;;;;;;;14.18;4.80;;;;;;;;;;4990022;28;20030;-76
2022/10/30 05:42:54;;;;;;;12.50;4.60;;;;;;;;;;5003524;28;20030;-77
2022/10/30 05:45:39;;;;;;;11.52;4.85;;;;;;;;;;4989318;28;20363;-77
2022/10/30 05:48:24;;;;;;;11.38;4.65;;;;;;;;;;4989925;28;20061;-76
2022/10/30 05:51:10;;;;;;;11.45;5.18;;;;;;;;;;4984902;28;20046;-76
2022/10/30 05:53:55;;;;;;;17.52;4.57;;;;;;;;;;4992365;28;20401;-76
2022/10/30 05:56:41;;;;;;;10.63;5.20;;;;;;;;;;4991916;28;20038;-75
2022/10/30 05:59:26;;;;;;;13.32;5.18;;;;;;;;;;4978180;28;20026;-76
2022/10/30 06:02:11;;;;;;;10.80;4.55;;;;;;;;;;4979055;28;20389;-74
2022/10/30 06:04:56;;;;;;;11.25;4.57;;;;;;;;;;4978152;28;20049;-76
2022/10/30 06:07:42;;;;;;;12.75;4.88;;;;;;;;;;4978425;28;20109;-77
2022/10/30 06:10:27;;;;;;;13.75;4.35;;;;;;;;;;4977691;28;20455;-77
2022/10/30 06:13:12;;;;;;;8.73;3.85;;;;;;;;;;4991834;28;20031;-78
2022/10/30 06:15:58;;;;;;;12.13;4.82;;;;;;;;;;4991357;28;20712;-78
2022/10/30 06:18:43;;;;;;;14.20;4.57;;;;;;;;;;4991679;28;20106;-77
2022/10/30 06:21:28;;;;;;;14.18;5.18;;;;;;;;;;4991078;28;20022;-78
2022/10/30 06:24:13;;;;;;;19.27;5.05;;;;;;;;;;4992368;28;20355;-78
2022/10/30 06:26:58;;;;;;;11.73;5.07;;;;;;;;;;4991508;28;20073;-77
2022/10/30 06:29:44;;;;;;;15.70;4.90;;;;;;;;;;4986317;28;20022;-72
2022/10/30 06:32:29;;;;;;;14.90;5.00;;;;;;;;;;4977279;28;20294;-73
2022/10/30 06:35:15;;;;;;;9.23;3.97;;;;;;;;;;4999729;28;20421;-73
2022/10/30 06:38:00;;;;;;;10.95;4.07;;;;;;;;;;4976459;28;20030;-73
2022/10/30 06:40:46;;;;;;;11.70;4.60;;;;;;;;;;5003955;28;20486;-73
2022/10/30 06:43:32;;;;;;;9.80;5.05;;;;;;;;;;4978121;28;20527;-78
2022/10/30 06:46:17;;;;;;;18.40;5.68;;;;;;;;;;4990399;28;20059;-75
2022/10/30 06:49:02;;;;;;;10.68;3.92;;;;;;;;;;4977780;28;20030;-74
2022/10/30 06:51:49;;;;;;;10.10;4.00;;;;;;;;;;4977194;28;20100;-73
2022/10/30 06:54:34;;;;;;;11.13;4.90;;;;;;;;;;4977625;28;20019;-73
2022/10/30 06:57:19;;;;;;;10.90;4.28;;;;;;;;;;4977915;28;20433;-72
2022/10/30 07:00:05;;;;;;;13.38;5.68;;;;;;;;;;4967476;28;20023;-73
2022/10/30 07:02:58;;;;;;;14.88;5.05;;;;;;;;;;4990534;28;20478;-77
2022/10/30 07:05:43;;;;;;;10.35;4.68;;;;;;;;;;4978114;28;20030;-83
2022/10/30 07:08:28;;;;;;;11.63;4.32;;;;;;;;;;4992173;28;20026;-82
2022/10/30 07:11:13;;;;;;;17.38;4.80;;;;;;;;;;5006535;28;20111;-84
2022/10/30 07:13:59;;;;;;;12.63;4.93;;;;;;;;;;4992663;28;20031;-83
2022/10/30 07:16:44;;;;;;;9.57;3.72;;;;;;;;;;4992519;28;20048;-83
2022/10/30 07:19:29;;;;;;;15.07;5.07;;;;;;;;;;5005725;28;20033;-82
2022/10/30 07:22:14;;;;;;;10.15;4.78;;;;;;;;;;5004384;28;20061;-77
2022/10/30 07:25:00;;;;;;;12.02;5.07;;;;;;;;;;5004418;28;20031;-78
2022/10/30 07:27:49;;;;;;;9.02;3.88;;;;;;;;;;4975335;28;20512;-78
2022/10/30 07:30:35;;;;;;;14.63;4.13;;;;;;;;;;4989110;28;20105;-78
2022/10/30 07:33:20;;;;;;;15.70;4.93;;;;;;;;;;4989387;28;20026;-78
2022/10/30 07:36:06;;;;;;;10.60;4.55;;;;;;;;;;4999139;28;20038;-78
2022/10/30 07:38:51;;;;;;;11.52;4.25;;;;;;;;;;4986366;28;20030;-79
2022/10/30 07:41:36;;;;;;;14.27;5.68;;;;;;;;;;4991614;28;20434;-78
2022/10/30 07:44:21;;;;;;;12.38;4.70;;;;;;;;;;4988638;28;20026;-76
2022/10/30 07:47:07;;;;;;;16.15;5.72;;;;;;;;;;4990093;28;20018;-76
2022/10/30 07:49:52;;;;;;;12.77;4.32;;;;;;;;;;4993953;28;20050;-76
2022/10/30 07:52:37;;;;;;;8.07;4.88;;;;;;;;;;4990090;28;20437;-76
2022/10/30 07:55:23;;;;;;;14.10;4.25;;;;;;;;;;4975767;28;20035;-77
2022/10/30 07:58:08;;;;;;;8.68;3.72;;;;;;;;;;4978562;28;20193;-85
2022/10/30 08:00:53;;;;;;;17.55;5.00;;;;;;;;;;4989458;28;20157;-79
2022/10/30 08:03:38;;;;;;;20.00;6.80;;;;;;;;;;4989978;28;20022;-77
2022/10/30 08:06:23;;;;;;;10.00;4.63;;;;;;;;;;4975672;28;20043;-77
2022/10/30 08:09:09;;;;;;;14.75;5.50;;;;;;;;;;5003479;28;20385;-79
2022/10/30 08:11:54;;;;;;;11.90;5.50;;;;;;;;;;5001690;28;20026;-77
2022/10/30 08:14:39;;;;;;;11.75;4.10;;;;;;;;;;4989306;28;20015;-80
2022/10/30 08:17:24;;;;;;;13.13;4.20;;;;;;;;;;5003124;28;20485;-78
2022/10/30 08:20:11;;;;;;;16.17;4.97;;;;;;;;;;5002692;28;20073;-74
2022/10/30 08:22:56;;;;;;;12.25;4.68;;;;;;;;;;4975327;28;20144;-73
2022/10/30 08:25:42;;;;;;;13.57;4.97;;;;;;;;;;4975235;28;20608;-73
2022/10/30 08:28:27;;;;;;;15.45;4.25;;;;;;;;;;4989879;28;20019;-73
2022/10/30 08:31:13;;;;;;;12.77;4.00;;;;;;;;;;4981757;28;20029;-72
2022/10/30 08:33:58;;;;;;;9.65;4.07;;;;;;;;;;4975389;28;20030;-83
2022/10/30 08:36:43;;;;;;;11.95;4.32;;;;;;;;;;4984672;28;20489;-76
2022/10/30 08:39:28;;;;;;;11.43;3.90;;;;;;;;;;5002031;28;20164;-76
2022/10/30 08:42:13;;;;;;;12.25;3.58;;;;;;;;;;4989126;28;20032;-76
2022/10/30 08:44:59;;;;;;;7.05;3.33;;;;;;;;;;4989013;28;20030;-75
2022/10/30 08:47:44;;;;;;;11.75;3.78;;;;;;;;;;4988686;28;20525;-75
2022/10/30 08:50:30;;;;;;;10.68;4.07;;;;;;;;;;5002937;28;20425;-75
2022/10/30 08:53:15;;;;;;;10.10;4.55;;;;;;;;;;4988557;28;20026;-71
2022/10/30 08:56:00;;;;;;;11.38;3.83;;;;;;;;;;4977049;28;20046;-83
2022/10/30 08:58:46;;;;;;;7.93;3.60;;;;;;;;;;4980409;28;20038;-85
2022/10/30 09:01:31;;;;;;;9.57;3.88;;;;;;;;;;4977945;28;20412;-84
2022/10/30 09:04:16;;;;;;;14.90;4.88;;;;;;;;;;4999247;28;20388;-84
2022/10/30 09:07:01;;;;;;;10.32;4.10;;;;;;;;;;4988570;28;20034;-83
2022/10/30 09:09:47;;;;;;;12.65;3.70;;;;;;;;;;4988862;28;20062;-87
2022/10/30 09:12:32;;;;;;;9.50;3.53;;;;;;;;;;4989497;28;20026;-75
2022/10/30 09:15:17;;;;;;;13.35;3.28;;;;;;;;;;5001790;28;20365;-73
2022/10/30 09:18:03;;;;;;;10.50;2.88;;;;;;;;;;4975017;28;20030;-74
2022/10/30 09:20:48;;;;;;;11.95;3.40;;;;;;;;;;4989003;28;20049;-74
2022/10/30 09:23:33;;;;;;;11.75;3.58;;;;;;;;;;4999418;28;20054;-73
2022/10/30 09:26:19;;;;;;;13.18;3.80;;;;;;;;;;4986310;28;20132;-73
2022/10/30 09:29:04;;;;;;;12.40;3.28;;;;;;;;;;4985998;28;20490;-77
2022/10/30 09:31:49;;;;;;;10.85;3.22;;;;;;;;;;4983864;28;20022;-79
2022/10/30 09:34:38;;;;;;;12.13;3.55;;;;;;;;;;4989474;28;20025;-82
2022/10/30 09:37:23;;;;;;;8.63;3.60;;;;;;;;;;4988007;28;20053;-82
2022/10/30 09:40:10;;;;;;;6.93;3.25;;;;;;;;;;4988254;28;20038;-81
2022/10/30 09:43:00;;;;;;;21.48;4.40;;;;;;;;;;4988964;28;20030;-83
2022/10/30 09:46:04;;;;;;;8.75;3.67;;;;;;;;;;4986612;28;20034;-84
2022/10/30 09:49:01;;;;;;;11.50;4.70;;;;;;;;;;5000584;28;20492;-75
2022/10/30 09:52:07;;;;;;;13.93;5.40;;;;;;;;;;4989033;28;20095;-76
2022/10/30 09:54:52;;;;;;;11.02;4.65;;;;;;;;;;4987960;28;20034;-77
2022/10/30 09:57:49;;;;;;;18.73;5.25;;;;;;;;;;4990454;28;20448;-77
2022/10/30 10:00:38;;;;;;;14.55;4.40;;;;;;;;;;4990846;28;20117;-76
2022/10/30 10:03:23;;;;;;;;;;;;;;;;;;4982041;28;20026;-77
2022/10/30 10:06:15;;;;;;;9.40;4.90;;;;;;;;;;4965154;28;19977;-74
2022/10/30 10:09:03;;;;;;;12.18;4.88;;;;;;;;;;4981878;28;20057;-79
2022/10/30 10:11:53;;;;;;;19.33;6.60;;;;;;;;;;5004049;28;20034;-78
2022/10/30 10:14:41;;;;;;;13.43;4.93;;;;;;;;;;5005924;28;20025;-79
2022/10/30 10:17:34;;;;;;;11.98;4.05;;;;;;;;;;5006310;28;20030;-77
2022/10/30 10:20:30;;;;;;;16.02;4.93;;;;;;;;;;5005163;28;20031;-78
2022/10/30 10:23:25;;;;;;;10.40;4.63;;;;;;;;;;4991588;28;20084;-79
2022/10/30 10:26:30;;;;;;;11.35;4.47;;;;;;;;;;4993093;28;20037;-79
2022/10/30 10:29:27;;;;;;;11.27;4.30;;;;;;;;;;4990535;28;20033;-79
2022/10/30 10:32:12;;;;;;;14.40;5.28;;;;;;;;;;4977288;28;20283;-79
2022/10/30 10:35:00;;;;;;;12.77;4.75;;;;;;;;;;5001111;28;20027;-79
2022/10/30 10:38:10;;;;;;;13.02;5.20;;;;;;;;;;4970251;28;20034;-79
2022/10/30 10:41:08;;;;;;;11.27;4.30;;;;;;;;;;4989890;28;20038;-78
2022/10/30 10:43:53;;;;;;;13.55;4.72;;;;;;;;;;4991109;28;20063;-78
2022/10/30 10:46:48;;;;;;;16.98;4.47;;;;;;;;;;4990692;28;20034;-76
2022/10/30 10:49:42;;;;;;;8.57;4.43;;;;;;;;;;5005100;28;20102;-79
2022/10/30 10:52:53;;;;;;;11.18;5.03;;;;;;;;;;5004397;28;20069;-79
2022/10/30 10:55:41;;;;;;;11.20;4.78;;;;;;;;;;4985374;28;20065;-79
2022/10/30 10:58:33;;;;;;;14.88;6.13;;;;;;;;;;4995855;28;20037;-79
2022/10/30 11:01:24;;;;;;;13.63;4.60;;;;;;;;;;4989601;28;20030;-76
2022/10/30 11:04:10;;;;;;;13.45;5.65;;;;;;;;;;5004422;28;20030;-78
2022/10/30 11:06:56;;;;;;;13.18;4.97;;;;;;;;;;5003101;28;20077;-79
2022/10/30 11:09:41;;;;;;;13.13;5.53;;;;;;;;;;4989534;28;20493;-78
2022/10/30 11:12:27;;;;;;;12.73;4.72;;;;;;;;;;4990515;28;20065;-79
2022/10/30 11:15:22;;;;;;;16.77;7.07;;;;;;;;;;4990930;28;20041;-79
2022/10/30 11:18:08;;;;;;;14.05;4.32;;;;;;;;;;4990352;28;20034;-79
2022/10/30 11:21:00;;;;;;;11.70;4.28;;;;;;;;;;5003800;28;20073;-74
2022/10/30 11:23:46;;;;;;;9.48;4.43;;;;;;;;;;4989683;28;20050;-83
2022/10/30 11:26:32;;;;;;;16.27;4.38;;;;;;;;;;4977483;28;20154;-82
2022/10/30 11:29:22;;;;;;;17.58;6.45;;;;;;;;;;5001969;28;20030;-82
2022/10/30 11:32:16;;;;;;;12.48;5.40;;;;;;;;;;4974932;28;20174;-84
2022/10/30 11:35:07;;;;;;;11.10;4.60;;;;;;;;;;4980302;28;20037;-83
2022/10/30 11:38:13;;;;;;;11.90;4.30;;;;;;;;;;4986036;28;20501;-86
2022/10/30 11:41:00;;;;;;;12.80;4.50;;;;;;;;;;4976703;28;20031;-78
2022/10/30 11:43:47;;;;;;;19.25;4.75;;;;;;;;;;4989392;28;20038;-78
2022/10/30 11:46:34;;;;;;;11.40;4.65;;;;;;;;;;4989345;28;20023;-79
2022/10/30 11:49:31;;;;;;;9.25;4.40;;;;;;;;;;4989099;28;20034;-79
2022/10/30 11:52:18;;;;;;;14.27;5.78;;;;;;;;;;4989103;28;20699;-79
2022/10/30 11:55:15;;;;;;;14.77;6.15;;;;;;;;;;4988727;28;20442;-79
2022/10/30 11:58:01;;;;;;;9.73;4.05;;;;;;;;;;4978183;28;20065;-74
2022/10/30 12:00:57;;;;;;;14.82;5.35;;;;;;;;;;4987679;28;20062;-76
2022/10/30 12:03:42;;;;;;;14.30;4.90;;;;;;;;;;4989362;28;20080;-75
2022/10/30 12:06:28;;;;;;;11.43;4.93;;;;;;;;;;4989747;28;20417;-74
2022/10/30 12:09:19;;;;;;;16.63;5.60;;;;;;;;;;4975805;28;20022;-75
2022/10/30 12:12:20;;;;;;;14.57;5.63;;;;;;;;;;4989890;28;20084;-76
2022/10/30 12:15:16;;;;;;;12.40;4.60;;;;;;;;;;4988994;28;20042;-77
2022/10/30 12:18:06;;;;;;;12.32;4.88;;;;;;;;;;5003892;28;20042;-72
2022/10/30 12:20:52;;;;;;;13.65;5.35;;;;;;;;;;4988998;28;20088;-72
2022/10/30 12:23:38;;;;;;;10.45;4.20;;;;;;;;;;4973256;28;20081;-73
2022/10/30 12:26:24;;;;;;;11.82;4.93;;;;;;;;;;4972577;28;20023;-72
2022/10/30 12:29:13;;;;;;;12.27;4.80;;;;;;;;;;4989027;28;20519;-74
2022/10/30 12:32:06;;;;;;;18.00;6.90;;;;;;;;;;4962120;28;20542;-74
2022/10/30 12:34:57;;;;;;;15.10;5.80;;;;;;;;;;4975874;28;20026;-76
2022/10/30 12:37:42;;;;;;;13.50;7.18;;;;;;;;;;4989667;28;20069;-76
2022/10/30 12:40:29;;;;;;;15.95;5.90;;;;;;;;;;4987920;28;20028;-76
2022/10/30 12:43:19;;;;;;;9.38;4.82;;;;;;;;;;4988936;28;20030;-77
2022/10/30 12:46:20;;;;;;;16.63;7.05;;;;;;;;;;4976039;28;20034;-81
2022/10/30 12:49:05;;;;;;;14.88;4.80;;;;;;;;;;4988395;28;20033;-77
2022/10/30 12:52:00;;;;;;;12.73;5.63;;;;;;;;;;4988441;28;20034;-83
2022/10/30 12:54:52;;;;;;;11.85;5.75;;;;;;;;;;4988587;28;20015;-76
2022/10/30 12:57:58;;;;;;;15.80;5.07;;;;;;;;;;4986642;28;20166;-76
2022/10/30 13:01:00;;;;;;;10.25;4.65;;;;;;;;;;4984538;28;20019;-77
2022/10/30 13:04:04;;;;;;;15.13;5.82;;;;;;;;;;4981899;28;20061;-78
2022/10/30 13:06:53;;;;;;;12.75;6.80;;;;;;;;;;4988759;28;20033;-76
2022/10/30 13:09:45;;;;;;;10.77;5.35;;;;;;;;;;5002132;28;20026;-84
2022/10/30 13:12:36;;;;;;;14.82;5.35;;;;;;;;;;4975258;28;20066;-78
2022/10/30 13:15:32;;;;;;;13.20;5.63;;;;;;;;;;4989687;28;20642;-82
2022/10/30 13:18:21;;;;;;;12.20;5.78;;;;;;;;;;4989245;28;20093;-85
2022/10/30 13:21:09;;;;;;;14.32;5.53;;;;;;;;;;4989256;28;20544;-86
2022/10/30 13:24:01;;;;;;;17.88;5.13;;;;;;;;;;4951038;29;20047;-84
2022/10/30 13:26:59;;;;;;;11.75;5.05;;;;;;;;;;4950001;29;20027;-85
2022/10/30 13:29:44;;;;;;;13.32;5.63;;;;;;;;;;4963003;28;20027;-86
2022/10/30 13:32:32;;;;;;;15.27;5.47;;;;;;;;;;4938168;28;20031;-78
2022/10/30 13:35:34;;;;;;;15.05;5.53;;;;;;;;;;4961790;28;20494;-78
2022/10/30 13:38:25;;;;;;;13.23;4.53;;;;;;;;;;4952845;29;20483;-77
2022/10/30 13:41:23;;;;;;;15.10;5.60;;;;;;;;;;4952623;28;20073;-76
2022/10/30 13:44:23;;;;;;;14.13;4.93;;;;;;;;;;4965862;28;20023;-77
2022/10/30 13:47:21;;;;;;;7.97;4.55;;;;;;;;;;4953253;29;20062;-74
2022/10/30 13:50:25;;;;;;;14.90;5.03;;;;;;;;;;4931694;29;20489;-76
2022/10/30 13:53:16;;;;;;;12.80;5.35;;;;;;;;;;4965835;28;20735;-79
2022/10/30 13:56:01;;;;;;;16.95;4.78;;;;;;;;;;4965873;28;20031;-77
2022/10/30 13:58:51;;;;;;;13.73;4.95;;;;;;;;;;4965671;28;20023;-77
2022/10/30 14:01:55;;;;;;;13.13;5.45;;;;;;;;;;4951271;29;20090;-78
2022/10/30 14:04:51;;;;;;;13.15;6.00;;;;;;;;;;4965409;28;20358;-76
2022/10/30 14:07:55;;;;;;;15.38;5.45;;;;;;;;;;4953334;29;20375;-73
2022/10/30 14:10:45;;;;;;;10.60;5.45;;;;;;;;;;4965523;28;20027;-76
2022/10/30 14:13:52;;;;;;;14.32;6.57;;;;;;;;;;4953191;29;20030;-77
2022/10/30 14:16:42;;;;;;;16.65;6.25;;;;;;;;;;4944991;28;20103;-77
2022/10/30 14:19:27;;;;;;;15.00;5.90;;;;;;;;;;4952912;28;20478;-77
2022/10/30 14:22:22;;;;;;;17.10;6.38;;;;;;;;;;4966016;28;20074;-76
2022/10/30 14:25:12;;;;;;;11.57;5.82;;;;;;;;;;4977918;28;20540;-73
2022/10/30 14:27:57;;;;;;;21.60;6.82;;;;;;;;;;4979032;28;20478;-83
2022/10/30 14:30:43;;;;;;;17.60;6.45;;;;;;;;;;4992328;28;20036;-82
2022/10/30 14:33:45;;;;;;;16.38;7.18;;;;;;;;;;4980176;28;20049;-81
2022/10/30 14:36:37;;;;;;;12.55;5.50;;;;;;;;;;4992388;28;20658;-81
2022/10/30 14:39:26;;;;;;;16.83;6.20;;;;;;;;;;5007646;28;20477;-82
2022/10/30 14:42:11;;;;;;;18.13;6.18;;;;;;;;;;4988540;28;20031;-74
2022/10/30 14:45:16;;;;;;;20.05;7.00;;;;;;;;;;4996218;28;20070;-75
2022/10/30 14:48:07;;;;;;;16.17;6.88;;;;;;;;;;5005019;28;20027;-75
2022/10/30 14:50:58;;;;;;;13.95;6.18;;;;;;;;;;5004602;28;20048;-76
2022/10/30 14:53:54;;;;;;;16.38;5.60;;;;;;;;;;4999121;28;20022;-75
2022/10/30 14:56:43;;;;;;;18.10;6.45;;;;;;;;;;4995606;28;20034;-75
2022/10/30 14:59:33;;;;;;;14.13;6.53;;;;;;;;;;4986118;28;20022;-74
2022/10/30 15:02:31;;;;;;;13.48;6.20;;;;;;;;;;4977531;28;20041;-77
2022/10/30 15:05:36;;;;;;;15.20;6.65;;;;;;;;;;4991072;28;20466;-76
2022/10/30 15:08:40;;;;;;;17.05;6.75;;;;;;;;;;4988422;28;20026;-75
2022/10/30 15:11:44;;;;;;;15.93;6.63;;;;;;;;;;4990295;28;20030;-75
2022/10/30 15:14:33;;;;;;;14.13;7.35;;;;;;;;;;4983823;28;20031;-75
2022/10/30 15:17:22;;;;;;;19.52;6.82;;;;;;;;;;4990401;28;20034;-75
2022/10/30 15:20:14;;;;;;;16.98;8.02;;;;;;;;;;4991367;28;20022;-77
2022/10/30 15:23:05;;;;;;;15.00;7.00;;;;;;;;;;4982665;28;20069;-76
2022/10/30 15:25:55;;;;;;;13.48;6.18;;;;;;;;;;4965010;28;20524;-74
2022/10/30 15:28:40;;;;;;;13.73;6.13;;;;;;;;;;5003440;28;20029;-75
2022/10/30 15:31:26;;;;;;;14.70;6.22;;;;;;;;;;4983267;28;20070;-75
2022/10/30 15:34:21;;;;;;;18.23;6.25;;;;;;;;;;4990457;28;20121;-75
2022/10/30 15:37:11;;;;;;;15.55;5.75;;;;;;;;;;4986562;28;20056;-76
2022/10/30 15:40:08;;;;;;;13.18;6.20;;;;;;;;;;4990679;28;20536;-77
2022/10/30 15:42:54;;;;;;;18.52;6.82;;;;;;;;;;5003602;28;20189;-76
2022/10/30 15:45:41;;;;;;;14.75;6.55;;;;;;;;;;4990310;28;20017;-77
2022/10/30 15:48:27;;;;;;;15.45;6.43;;;;;;;;;;4989984;28;20541;-77
2022/10/30 15:51:14;;;;;;;14.05;6.85;;;;;;;;;;4990331;28;20030;-77
2022/10/30 15:54:00;;;;;;;13.90;5.75;;;;;;;;;;4989489;28;20038;-77
2022/10/30 15:56:48;;;;;;;16.83;6.30;;;;;;;;;;4988513;28;20046;-77
2022/10/30 15:59:34;;;;;;;20.25;7.28;;;;;;;;;;5002302;28;20402;-75
2022/10/30 16:02:20;;;;;;;16.77;6.95;;;;;;;;;;4989959;28;20033;-77
2022/10/30 16:05:19;;;;;;;15.38;7.38;;;;;;;;;;4975960;28;20034;-76
2022/10/30 16:08:10;;;;;;;14.20;7.00;;;;;;;;;;5003312;28;20129;-76
2022/10/30 16:10:56;;;;;;;10.73;6.28;;;;;;;;;;4989984;28;20038;-76
2022/10/30 16:13:41;;;;;;;12.63;5.80;;;;;;;;;;4975560;28;20053;-76
2022/10/30 16:16:29;;;;;;;17.67;6.38;;;;;;;;;;4990189;28;20277;-81
2022/10/30 16:19:25;;;;;;;14.32;6.00;;;;;;;;;;4989298;28;20412;-78
2022/10/30 16:22:13;;;;;;;13.15;6.53;;;;;;;;;;5002648;28;20046;-78
2022/10/30 16:24:58;;;;;;;16.55;6.00;;;;;;;;;;4989135;28;20072;-78
2022/10/30 16:27:44;;;;;;;16.05;6.18;;;;;;;;;;4990725;28;20018;-77
2022/10/30 16:30:30;;;;;;;14.07;5.70;;;;;;;;;;4989311;28;20355;-76
2022/10/30 16:33:19;;;;;;;19.60;6.25;;;;;;;;;;4988670;28;20062;-77
2022/10/30 16:36:06;;;;;;;14.77;6.05;;;;;;;;;;4989110;28;20092;-76